Hachinohe Airport

Current Flights

Departures
Number Departure To Airline
Arrivals
Number Arrival From Airline
Info
Name: Hachinohe Airport
Identifier:  HHE/RJSH
Local Time:  20. May 19:08
City
Current Weather
 21 C (Humidity: 56%)
  9kt (16km/h / 10mph) from 140°
  Few clouds at 3,000 feet (914 meter)
  Broken clouds at 5,000 feet (1,524 meter)
  Broken clouds at 23,000 feet (7,010 meter)
  9km (6 mi.)
 METAR RJSH 201145Z 14009KT 100V190 9999 FEW030 BKN050 BKN230 21/12 Q1009 RMK 1CU030 5SC050 A2980

Current Delays

Departures
N/A
Arrivals
N/A